createdAt,value
2022-09-26T00:00:49.504Z,0.50
2022-09-26T00:03:17.432Z,0.40
2022-09-26T00:05:46.759Z,0.50
2022-09-26T00:08:14.733Z,0.60
2022-09-26T00:10:42.828Z,0.50
2022-09-26T00:13:10.875Z,0.40
2022-09-26T00:15:38.725Z,0.57
2022-09-26T00:18:07.063Z,1.05
2022-09-26T00:20:37.779Z,0.60
2022-09-26T00:23:07.030Z,0.40
2022-09-26T00:25:35.192Z,1.10
2022-09-26T00:28:03.318Z,0.50
2022-09-26T00:30:31.389Z,0.70
2022-09-26T00:32:59.248Z,0.45
2022-09-26T00:35:27.030Z,0.55
2022-09-26T00:37:54.912Z,0.90
2022-09-26T00:40:27.121Z,0.47
2022-09-26T00:42:55.240Z,0.90
2022-09-26T00:45:24.132Z,0.77
2022-09-26T00:47:58.105Z,0.50
2022-09-26T00:50:29.963Z,0.50
2022-09-26T00:53:02.545Z,0.70
2022-09-26T00:55:36.870Z,0.50
2022-09-26T00:58:07.769Z,1.00
2022-09-26T01:00:37.538Z,0.95
2022-09-26T01:03:05.875Z,0.60
2022-09-26T01:05:34.924Z,0.45
2022-09-26T01:08:03.701Z,0.70
2022-09-26T01:10:35.308Z,0.60
2022-09-26T01:13:04.135Z,0.47
2022-09-26T01:15:31.968Z,0.70
2022-09-26T01:17:59.823Z,0.50
2022-09-26T01:20:40.002Z,0.50
2022-09-26T01:23:46.247Z,0.70
2022-09-26T01:26:45.696Z,0.77
2022-09-26T01:30:02.757Z,0.50
2022-09-26T01:32:52.808Z,0.38
2022-09-26T01:35:37.935Z,0.65
2022-09-26T01:38:14.699Z,0.50
2022-09-26T01:40:49.697Z,0.70
2022-09-26T01:43:24.823Z,0.88
2022-09-26T01:45:55.213Z,1.52
2022-09-26T01:48:31.563Z,0.70
2022-09-26T01:51:05.832Z,0.90
2022-09-26T01:53:41.689Z,0.90
2022-09-26T01:56:14.677Z,0.88
2022-09-26T01:58:46.644Z,1.05
2022-09-26T02:01:17.410Z,1.20
2022-09-26T02:03:50.078Z,0.88
2022-09-26T02:06:23.007Z,1.02
2022-09-26T02:08:55.213Z,0.60
2022-09-26T02:11:24.783Z,1.17
2022-09-26T02:13:57.071Z,1.02
2022-09-26T02:16:28.681Z,1.30
2022-09-26T02:19:04.287Z,0.82
2022-09-26T02:21:32.212Z,1.00
2022-09-26T02:24:00.283Z,1.00
2022-09-26T02:26:28.304Z,1.20
2022-09-26T02:28:57.436Z,1.13
2022-09-26T02:31:28.732Z,1.20
2022-09-26T02:33:58.312Z,1.30
2022-09-26T02:36:26.419Z,1.20
2022-09-26T02:38:54.271Z,1.30
2022-09-26T02:41:30.967Z,0.90
2022-09-26T02:44:13.099Z,1.30
2022-09-26T02:46:59.320Z,0.85
2022-09-26T02:49:45.433Z,1.02
2022-09-26T02:52:24.080Z,0.90
2022-09-26T02:55:03.014Z,0.70
2022-09-26T02:57:38.242Z,1.00
2022-09-26T03:00:10.247Z,1.33
2022-09-26T03:02:43.662Z,1.15
2022-09-26T03:05:17.506Z,1.00
2022-09-26T03:07:49.745Z,1.80
2022-09-26T03:10:18.764Z,1.30
2022-09-26T03:12:46.933Z,1.40
2022-09-26T03:15:17.206Z,1.10
2022-09-26T03:17:50.531Z,0.98
2022-09-26T03:20:22.601Z,1.38
2022-09-26T03:22:51.231Z,1.13
2022-09-26T03:25:22.450Z,1.58
2022-09-26T03:27:50.971Z,1.40
2022-09-26T03:30:19.694Z,1.30
2022-09-26T03:32:47.519Z,1.40
2022-09-26T03:35:16.098Z,1.20
2022-09-26T03:37:45.301Z,1.10
2022-09-26T03:40:14.012Z,1.40
2022-09-26T03:42:42.204Z,1.27
2022-09-26T03:45:11.969Z,1.05
2022-09-26T03:47:39.827Z,1.20
2022-09-26T03:50:09.223Z,1.70
2022-09-26T03:52:37.472Z,1.20
2022-09-26T03:55:07.245Z,1.17
2022-09-26T03:57:35.712Z,1.33
2022-09-26T04:00:07.576Z,1.40
2022-09-26T04:02:36.067Z,1.25
2022-09-26T04:05:04.420Z,1.48
2022-09-26T04:07:32.241Z,1.63
2022-09-26T04:10:00.232Z,1.45
2022-09-26T04:12:29.530Z,1.20
2022-09-26T04:14:57.378Z,1.20
2022-09-26T04:17:25.352Z,1.67
2022-09-26T04:19:53.326Z,1.60
2022-09-26T04:22:21.237Z,1.45
2022-09-26T04:24:49.123Z,1.45
2022-09-26T04:27:17.055Z,1.50
2022-09-26T04:29:46.258Z,1.30
2022-09-26T04:32:14.244Z,1.73
2022-09-26T04:34:42.129Z,1.52
2022-09-26T04:37:10.254Z,1.67
2022-09-26T04:39:38.334Z,1.15
2022-09-26T04:42:06.732Z,1.25
2022-09-26T04:44:34.928Z,1.40
2022-09-26T04:47:04.382Z,1.60
2022-09-26T04:49:32.299Z,1.75
2022-09-26T04:52:00.160Z,1.48
2022-09-26T04:54:28.142Z,1.10
2022-09-26T04:56:56.103Z,1.13
2022-09-26T04:59:23.935Z,1.10
2022-09-26T05:01:52.140Z,1.20
2022-09-26T05:04:27.255Z,1.60
2022-09-26T05:06:59.144Z,1.65
2022-09-26T05:11:14.358Z,1.23
2022-09-26T05:13:42.705Z,1.60
2022-09-26T05:16:12.252Z,2.10
2022-09-26T05:18:40.233Z,1.63
2022-09-26T05:21:08.745Z,1.55
2022-09-26T05:23:56.156Z,1.35
2022-09-26T05:26:27.854Z,1.27
2022-09-26T05:28:57.496Z,1.38
2022-09-26T05:31:28.990Z,1.25
2022-09-26T05:33:57.449Z,1.58
2022-09-26T05:36:26.321Z,1.27
2022-09-26T05:38:54.675Z,1.48
2022-09-26T05:41:21.801Z,1.60
2022-09-26T05:43:51.665Z,1.42
2022-09-26T05:46:19.619Z,1.50
2022-09-26T05:48:47.402Z,1.98
2022-09-26T05:51:17.224Z,1.40
2022-09-26T05:53:46.702Z,1.77
2022-09-26T05:56:18.715Z,1.58
2022-09-26T05:58:48.079Z,1.20
2022-09-26T06:01:19.266Z,1.48
2022-09-26T06:03:48.086Z,1.52
2022-09-26T06:06:19.274Z,1.15
2022-09-26T06:08:47.950Z,1.42
2022-09-26T06:11:17.794Z,1.00
2022-09-26T06:13:46.759Z,1.20
2022-09-26T06:16:18.577Z,1.20
2022-09-26T06:18:47.793Z,1.05
2022-09-26T06:21:18.029Z,1.00
2022-09-26T06:23:46.284Z,1.00
2022-09-26T06:26:16.267Z,1.20
2022-09-26T06:28:44.052Z,1.65
2022-09-26T06:31:12.906Z,1.33
2022-09-26T06:33:42.800Z,1.10
2022-09-26T06:36:12.199Z,1.50
2022-09-26T06:38:40.365Z,1.80
2022-09-26T06:41:08.318Z,1.33
2022-09-26T06:43:36.129Z,1.20
2022-09-26T06:46:03.929Z,1.30
2022-09-26T06:48:31.831Z,1.33
2022-09-26T06:51:00.965Z,1.13
2022-09-26T06:53:29.169Z,1.58
2022-09-26T06:55:57.046Z,1.50
2022-09-26T06:58:24.890Z,1.38
2022-09-26T07:00:52.901Z,1.15
2022-09-26T07:03:21.159Z,1.08
2022-09-26T07:05:48.888Z,1.42
2022-09-26T07:08:18.023Z,1.38
2022-09-26T07:10:47.239Z,1.35
2022-09-26T07:13:17.067Z,1.30
2022-09-26T07:15:46.700Z,0.93
2022-09-26T07:18:14.815Z,1.50
2022-09-26T07:20:47.116Z,1.13
2022-09-26T07:23:17.234Z,0.88
2022-09-26T07:25:46.741Z,1.20
2022-09-26T07:28:15.188Z,1.05
2022-09-26T07:30:43.362Z,1.20
2022-09-26T07:33:12.562Z,1.13
2022-09-26T07:35:44.441Z,1.65
2022-09-26T07:38:13.087Z,1.20
2022-09-26T07:40:43.783Z,1.38
2022-09-26T07:43:20.731Z,1.33
2022-09-26T07:46:10.730Z,1.08
2022-09-26T07:48:56.064Z,0.80
2022-09-26T07:51:24.221Z,1.63
2022-09-26T07:53:52.050Z,0.98
2022-09-26T07:56:22.382Z,1.00
2022-09-26T07:58:50.550Z,1.00
2022-09-26T08:01:18.907Z,1.25
2022-09-26T08:03:49.000Z,1.60
2022-09-26T08:06:20.204Z,1.00
2022-09-26T08:08:48.329Z,1.02
2022-09-26T08:11:17.901Z,1.23
2022-09-26T08:13:48.052Z,1.05
2022-09-26T08:16:19.546Z,1.23
2022-09-26T08:18:47.498Z,1.10
2022-09-26T08:21:15.289Z,1.25
2022-09-26T08:23:43.341Z,0.73
2022-09-26T08:26:11.682Z,0.80
2022-09-26T08:28:39.871Z,1.00
2022-09-26T08:31:09.121Z,1.17
2022-09-26T08:33:38.832Z,1.42
2022-09-26T08:36:07.863Z,1.38
2022-09-26T08:38:36.421Z,1.38
2022-09-26T08:41:16.975Z,1.13
2022-09-26T08:43:58.341Z,1.00
2022-09-26T08:46:44.021Z,0.95
2022-09-26T08:49:39.836Z,1.30
2022-09-26T08:52:27.007Z,0.88
2022-09-26T08:54:56.403Z,1.48
2022-09-26T08:57:35.021Z,1.75
2022-09-26T09:00:11.851Z,0.90
2022-09-26T09:02:47.721Z,1.70
2022-09-26T09:05:20.576Z,1.33
2022-09-26T09:07:51.761Z,1.48
2022-09-26T09:10:23.803Z,1.65
2022-09-26T09:13:01.088Z,2.22
2022-09-26T09:15:39.307Z,1.20
2022-09-26T09:18:18.768Z,1.40
2022-09-26T09:20:56.042Z,1.40
2022-09-26T09:23:50.705Z,1.45
2022-09-26T09:29:37.798Z,1.35
2022-09-26T09:32:07.082Z,1.55
2022-09-26T09:34:42.911Z,1.90
2022-09-26T09:37:17.029Z,1.67
2022-09-26T09:39:48.805Z,1.60
2022-09-26T09:42:23.220Z,1.25
2022-09-26T09:44:55.902Z,1.70
2022-09-26T09:47:23.701Z,1.55
2022-09-26T09:49:53.073Z,1.00
2022-09-26T09:52:38.298Z,1.25
2022-09-26T09:55:17.560Z,1.27
2022-09-26T09:57:55.075Z,1.30
2022-09-26T10:00:25.007Z,1.10
2022-09-26T10:03:01.142Z,1.38
2022-09-26T10:05:37.453Z,1.05
2022-09-26T10:08:11.561Z,1.50
2022-09-26T10:10:45.774Z,1.20
2022-09-26T10:13:13.750Z,1.73
2022-09-26T10:15:45.908Z,1.85
2022-09-26T10:18:26.539Z,1.00
2022-09-26T10:20:59.701Z,1.45
2022-09-26T10:23:33.317Z,1.15
2022-09-26T10:26:04.139Z,1.40
2022-09-26T10:28:36.216Z,1.95
2022-09-26T10:31:08.697Z,1.70
2022-09-26T10:33:38.557Z,1.75
2022-09-26T10:36:20.634Z,1.23
2022-09-26T10:39:12.375Z,1.35
2022-09-26T10:41:42.670Z,1.80
2022-09-26T10:44:24.744Z,1.20
2022-09-26T10:46:56.449Z,1.30
2022-09-26T10:49:34.745Z,1.38
2022-09-26T10:52:17.557Z,1.10
2022-09-26T10:54:55.444Z,1.00
2022-09-26T10:57:28.096Z,1.75
2022-09-26T10:59:58.694Z,1.52
2022-09-26T11:02:29.057Z,1.73
2022-09-26T11:05:18.301Z,1.58
2022-09-26T11:07:49.361Z,1.45
2022-09-26T11:10:24.404Z,1.30
2022-09-26T11:13:02.299Z,1.98
2022-09-26T11:15:30.443Z,1.40
2022-09-26T11:17:58.753Z,1.80
2022-09-26T11:20:48.475Z,1.38
2022-09-26T11:23:31.328Z,1.58
2022-09-26T11:26:08.549Z,1.70
2022-09-26T11:28:41.404Z,1.55
2022-09-26T11:31:17.053Z,1.40
2022-09-26T11:33:45.219Z,1.40
2022-09-26T11:36:45.399Z,1.65
2022-09-26T11:39:31.732Z,1.60
2022-09-26T11:42:13.656Z,1.48
2022-09-26T11:44:55.428Z,1.48
2022-09-26T11:48:02.108Z,1.00
2022-09-26T11:50:45.325Z,1.25
2022-09-26T11:53:52.326Z,1.40
2022-09-26T11:56:41.324Z,1.52
2022-09-26T11:59:28.431Z,1.25
2022-09-26T12:02:15.628Z,1.00
2022-09-26T12:05:04.094Z,1.33
2022-09-26T12:07:39.520Z,1.00
2022-09-26T12:10:26.279Z,0.88
2022-09-26T12:13:13.329Z,0.70
2022-09-26T12:15:48.200Z,1.05
2022-09-26T12:18:24.990Z,0.80
2022-09-26T12:21:08.636Z,0.90
2022-09-26T12:23:42.103Z,0.95
2022-09-26T12:26:19.867Z,0.68
2022-09-26T12:29:10.085Z,1.10
2022-09-26T12:31:56.810Z,0.60
2022-09-26T12:34:43.534Z,0.55
2022-09-26T12:37:28.472Z,0.52
2022-09-26T12:40:14.214Z,0.60
2022-09-26T12:42:54.537Z,0.50
2022-09-26T12:45:43.073Z,0.80
2022-09-26T12:48:24.641Z,0.77
2022-09-26T12:51:15.372Z,0.90
2022-09-26T12:54:06.133Z,0.80
2022-09-26T12:56:45.981Z,0.80
2022-09-26T12:59:28.847Z,0.90
2022-09-26T13:02:28.675Z,1.00
2022-09-26T13:05:14.119Z,1.25
2022-09-26T13:07:52.409Z,0.98
2022-09-26T13:10:33.922Z,1.00
2022-09-26T13:13:35.557Z,0.85
2022-09-26T13:16:16.179Z,0.90
2022-09-26T13:18:49.761Z,1.30
2022-09-26T13:21:24.186Z,1.10
2022-09-26T13:23:57.766Z,1.40
2022-09-26T13:26:31.259Z,1.17
2022-09-26T13:29:17.294Z,1.17
2022-09-26T13:31:55.359Z,0.80
2022-09-26T13:34:30.953Z,0.90
2022-09-26T13:37:00.282Z,1.13
2022-09-26T13:39:34.974Z,1.20
2022-09-26T13:42:08.436Z,0.80
2022-09-26T13:44:56.350Z,1.00
2022-09-26T13:47:35.410Z,1.20
2022-09-26T13:50:19.887Z,0.73
2022-09-26T13:52:57.435Z,0.90
2022-09-26T13:55:26.351Z,1.33
2022-09-26T13:58:06.815Z,1.13
2022-09-26T14:00:49.074Z,1.33
2022-09-26T14:03:43.179Z,0.95
2022-09-26T14:06:31.928Z,1.05
2022-09-26T14:09:24.062Z,1.00
2022-09-26T14:12:17.494Z,1.30
2022-09-26T14:14:52.834Z,1.67
2022-09-26T14:17:50.458Z,1.35
2022-09-26T14:20:25.466Z,1.20
2022-09-26T14:22:56.115Z,1.17
2022-09-26T14:25:57.643Z,1.38
2022-09-26T14:28:36.229Z,1.02
2022-09-26T14:31:27.570Z,1.15
2022-09-26T14:34:12.058Z,0.80
2022-09-26T14:36:40.637Z,0.82
2022-09-26T14:39:25.281Z,1.17
2022-09-26T14:41:54.573Z,0.93
2022-09-26T14:44:23.325Z,1.42
2022-09-26T14:46:55.739Z,1.33
2022-09-26T14:49:27.485Z,1.55
2022-09-26T14:52:00.877Z,1.77
2022-09-26T14:54:35.620Z,1.45
2022-09-26T14:57:05.433Z,1.50
2022-09-26T14:59:44.157Z,1.80
2022-09-26T15:02:26.105Z,1.40
2022-09-26T15:05:06.731Z,1.38
2022-09-26T15:07:37.787Z,1.80
2022-09-26T15:10:18.824Z,1.63
2022-09-26T15:12:52.584Z,1.70
2022-09-26T15:15:35.753Z,2.20
2022-09-26T15:18:09.876Z,1.30
2022-09-26T15:20:43.459Z,1.55
2022-09-26T15:23:23.755Z,1.88
2022-09-26T15:25:54.217Z,1.75
2022-09-26T15:28:24.171Z,2.38
2022-09-26T15:31:21.344Z,1.15
2022-09-26T15:33:52.661Z,2.35
2022-09-26T15:36:21.658Z,2.10
2022-09-26T15:38:50.358Z,2.25
2022-09-26T15:41:39.988Z,1.70
2022-09-26T15:44:08.157Z,2.03
2022-09-26T15:46:36.294Z,1.70
2022-09-26T15:49:15.017Z,1.65
2022-09-26T15:51:45.487Z,1.25
2022-09-26T15:54:20.335Z,2.33
2022-09-26T15:56:51.964Z,2.03
2022-09-26T15:59:24.038Z,1.55
2022-09-26T16:01:52.502Z,1.83
2022-09-26T16:04:23.435Z,1.02
2022-09-26T16:06:58.073Z,2.10
2022-09-26T16:09:31.723Z,1.48
2022-09-26T16:12:01.651Z,1.20
2022-09-26T16:14:40.614Z,1.65
2022-09-26T16:17:16.853Z,1.27
2022-09-26T16:19:49.144Z,0.60
2022-09-26T16:22:45.843Z,1.02
2022-09-26T16:25:52.391Z,1.02
2022-09-26T16:28:39.410Z,1.35
2022-09-26T16:31:23.131Z,1.65
2022-09-26T16:33:53.208Z,1.98
2022-09-26T16:36:24.441Z,1.48
2022-09-26T16:38:54.474Z,1.23
2022-09-26T16:41:56.451Z,1.70
2022-09-26T16:44:26.496Z,0.85
2022-09-26T16:46:58.798Z,1.10
2022-09-26T16:49:42.965Z,1.95
2022-09-26T16:52:27.836Z,1.63
2022-09-26T16:54:56.587Z,1.30
2022-09-26T16:57:26.962Z,1.25
2022-09-26T17:00:18.798Z,1.20
2022-09-26T17:02:46.002Z,1.90
2022-09-26T17:05:18.493Z,1.35
2022-09-26T17:07:49.907Z,1.55
2022-09-26T17:10:19.395Z,1.23
2022-09-26T17:12:50.525Z,1.00
2022-09-26T17:15:22.864Z,1.13
2022-09-26T17:17:53.570Z,0.80
2022-09-26T17:20:22.427Z,1.52
2022-09-26T17:22:52.007Z,1.10
2022-09-26T17:25:20.078Z,1.00
2022-09-26T17:27:52.064Z,0.60
2022-09-26T17:30:21.232Z,1.00
2022-09-26T17:32:51.315Z,0.68
2022-09-26T17:35:24.957Z,0.68
2022-09-26T17:37:54.362Z,0.63
2022-09-26T17:40:25.053Z,1.15
2022-09-26T17:42:55.352Z,0.80
2022-09-26T17:45:28.524Z,1.30
2022-09-26T17:47:58.801Z,1.73
2022-09-26T17:50:29.846Z,0.82
2022-09-26T17:53:01.037Z,0.88
2022-09-26T17:55:29.766Z,0.73
2022-09-26T17:57:58.277Z,1.40
2022-09-26T18:00:28.180Z,0.95
2022-09-26T18:03:00.280Z,0.82
2022-09-26T18:05:32.399Z,1.38
2022-09-26T18:08:05.279Z,0.77
2022-09-26T18:10:35.770Z,1.60
2022-09-26T18:13:12.103Z,0.98
2022-09-26T18:15:41.930Z,1.00
2022-09-26T18:18:15.524Z,1.13
2022-09-26T18:20:45.537Z,0.73
2022-09-26T18:23:20.310Z,0.95
2022-09-26T18:25:50.914Z,0.95
2022-09-26T18:28:22.219Z,1.20
2022-09-26T18:30:57.744Z,1.00
2022-09-26T18:33:28.866Z,0.60
2022-09-26T18:35:58.071Z,1.02
2022-09-26T18:38:27.867Z,0.80
2022-09-26T18:40:58.748Z,0.90
2022-09-26T18:43:32.013Z,0.47
2022-09-26T18:46:00.008Z,0.50
2022-09-26T18:48:31.570Z,0.70
2022-09-26T18:50:59.919Z,0.30
2022-09-26T18:53:36.884Z,0.50
2022-09-26T18:56:22.770Z,0.80
2022-09-26T18:58:50.806Z,0.50
2022-09-26T19:01:27.232Z,0.82
2022-09-26T19:03:56.844Z,0.80
2022-09-26T19:06:27.488Z,0.80
2022-09-26T19:09:00.368Z,0.60
2022-09-26T19:11:31.863Z,1.05
2022-09-26T19:14:03.622Z,1.17
2022-09-26T19:16:31.383Z,0.88
2022-09-26T19:18:59.235Z,0.70
2022-09-26T19:21:32.166Z,0.88
2022-09-26T19:24:06.255Z,1.15
2022-09-26T19:26:38.714Z,0.95
2022-09-26T19:29:11.876Z,1.13
2022-09-26T19:31:40.610Z,1.25
2022-09-26T19:34:10.547Z,1.00
2022-09-26T19:36:38.429Z,0.77
2022-09-26T19:39:11.938Z,1.60
2022-09-26T19:41:39.715Z,0.60
2022-09-26T19:44:08.216Z,0.50
2022-09-26T19:46:38.003Z,1.67
2022-09-26T19:49:06.473Z,0.55
2022-09-26T19:51:39.533Z,0.30
2022-09-26T19:54:15.456Z,0.80
2022-09-26T19:56:44.150Z,0.65
2022-09-26T19:59:12.700Z,0.95
2022-09-26T20:01:42.217Z,0.47
2022-09-26T20:04:15.897Z,0.50
2022-09-26T20:06:44.471Z,0.55
2022-09-26T20:09:17.691Z,0.63
2022-09-26T20:11:49.023Z,0.77
2022-09-26T20:14:25.846Z,1.08
2022-09-26T20:16:57.003Z,0.70
2022-09-26T20:19:37.619Z,0.65
2022-09-26T20:22:07.507Z,0.57
2022-09-26T20:24:39.415Z,0.50
2022-09-26T20:27:09.131Z,0.82
2022-09-26T20:29:51.276Z,0.98
2022-09-26T20:32:20.088Z,0.50
2022-09-26T20:34:48.227Z,0.80
2022-09-26T20:37:16.276Z,0.63
2022-09-26T20:39:46.927Z,0.47
2022-09-26T20:42:18.458Z,1.00
2022-09-26T20:44:47.903Z,0.55
2022-09-26T20:47:19.805Z,0.60
2022-09-26T20:49:51.442Z,1.23
2022-09-26T20:52:22.560Z,0.80
2022-09-26T20:54:53.028Z,0.95
2022-09-26T20:57:22.244Z,0.60
2022-09-26T20:59:50.905Z,0.73
2022-09-26T21:02:30.933Z,0.75
2022-09-26T21:05:01.369Z,0.82
2022-09-26T21:07:31.678Z,0.77
2022-09-26T21:10:00.915Z,0.60
2022-09-26T21:12:28.898Z,0.57
2022-09-26T21:14:56.658Z,0.30
2022-09-26T21:17:27.971Z,0.60
2022-09-26T21:19:56.748Z,0.60
2022-09-26T21:22:27.402Z,0.50
2022-09-26T21:24:55.325Z,0.50
2022-09-26T21:27:24.695Z,0.60
2022-09-26T21:29:52.557Z,0.80
2022-09-26T21:32:23.116Z,0.80
2022-09-26T21:34:57.517Z,1.35
2022-09-26T21:37:25.344Z,0.75
2022-09-26T21:39:53.134Z,0.65
2022-09-26T21:42:21.106Z,0.75
2022-09-26T21:44:54.470Z,0.65
2022-09-26T21:47:23.551Z,0.60
2022-09-26T21:49:51.563Z,0.52
2022-09-26T21:52:27.606Z,0.40
2022-09-26T21:54:58.449Z,0.38
2022-09-26T21:57:30.115Z,1.08
2022-09-26T21:59:59.619Z,0.40
2022-09-26T22:02:27.933Z,0.32
2022-09-26T22:04:55.807Z,0.68
2022-09-26T22:07:23.555Z,0.20
2022-09-26T22:09:51.396Z,0.30
2022-09-26T22:12:20.143Z,0.35
2022-09-26T22:14:47.874Z,0.28
2022-09-26T22:17:17.090Z,0.20
2022-09-26T22:19:44.816Z,0.40
2022-09-26T22:22:12.808Z,0.35
2022-09-26T22:24:40.697Z,0.20
2022-09-26T22:27:08.573Z,0.80
2022-09-26T22:29:36.327Z,0.70
2022-09-26T22:32:04.614Z,0.70
2022-09-26T22:34:33.849Z,0.90
2022-09-26T22:37:01.651Z,0.60
2022-09-26T22:39:29.543Z,0.30
2022-09-26T22:41:57.350Z,0.20
2022-09-26T22:44:25.120Z,1.00
2022-09-26T22:46:52.912Z,0.43
2022-09-26T22:49:20.721Z,0.43
2022-09-26T22:51:49.834Z,0.43
2022-09-26T22:54:17.858Z,0.40
2022-09-26T22:56:45.753Z,0.47
2022-09-26T22:59:13.702Z,0.80
2022-09-26T23:01:41.771Z,0.30
2022-09-26T23:04:09.871Z,0.20
2022-09-26T23:06:37.609Z,0.35
2022-09-26T23:09:06.956Z,0.20
2022-09-26T23:11:34.980Z,0.50
2022-09-26T23:14:02.754Z,0.38
2022-09-26T23:16:30.555Z,0.80
2022-09-26T23:18:59.235Z,0.52
2022-09-26T23:21:28.659Z,0.50
2022-09-26T23:23:58.723Z,0.50
2022-09-26T23:26:29.792Z,0.47
2022-09-26T23:28:58.632Z,0.20
2022-09-26T23:31:28.355Z,0.73
2022-09-26T23:33:57.350Z,0.68
2022-09-26T23:36:25.313Z,0.80
2022-09-26T23:38:53.544Z,0.40
2022-09-26T23:41:21.415Z,0.63
2022-09-26T23:43:50.752Z,0.52
2022-09-26T23:46:18.881Z,0.30
2022-09-26T23:48:46.996Z,0.40
2022-09-26T23:51:14.771Z,1.20
2022-09-26T23:53:42.838Z,0.30
2022-09-26T23:56:13.697Z,0.82
2022-09-26T23:58:42.019Z,0.30
